createdAt,value
2022-08-20T00:02:16.503Z,74639.13
2022-08-20T00:04:45.145Z,74639.13
2022-08-20T00:07:13.511Z,74637.09
2022-08-20T00:09:42.902Z,74631.00
2022-08-20T00:12:12.433Z,74633.03
2022-08-20T00:14:40.573Z,74639.13
2022-08-20T00:17:09.867Z,74641.19
2022-08-20T00:19:38.011Z,74643.22
2022-08-20T00:22:06.205Z,74639.13
2022-08-20T00:24:35.022Z,74641.19
2022-08-20T00:27:03.553Z,74641.19
2022-08-20T00:29:31.481Z,74641.19
2022-08-20T00:31:59.507Z,74635.06
2022-08-20T00:34:30.217Z,74631.00
2022-08-20T00:36:58.459Z,74635.06
2022-08-20T00:39:26.342Z,74635.06
2022-08-20T00:41:54.513Z,74641.19
2022-08-20T00:44:23.862Z,74647.28
2022-08-20T00:46:53.410Z,74651.38
2022-08-20T00:49:24.874Z,74647.28
2022-08-20T00:51:58.898Z,74645.25
2022-08-20T00:54:31.277Z,74651.38
2022-08-20T00:57:03.794Z,74651.38
2022-08-20T00:59:35.418Z,74653.41
2022-08-20T01:02:05.425Z,74659.53
2022-08-20T01:04:36.066Z,74659.53
2022-08-20T01:07:07.713Z,74657.47
2022-08-20T01:09:58.527Z,74663.59
2022-08-20T01:12:28.196Z,74665.63
2022-08-20T01:14:58.449Z,74669.72
2022-08-20T01:17:29.846Z,74665.63
2022-08-20T01:20:02.353Z,74667.69
2022-08-20T01:22:54.366Z,74667.69
2022-08-20T01:25:29.573Z,74665.63
2022-08-20T01:28:00.136Z,74663.59
2022-08-20T01:30:32.808Z,74651.38
2022-08-20T01:33:02.314Z,74659.53
2022-08-20T01:35:30.660Z,74657.47
2022-08-20T01:37:58.788Z,74653.41
2022-08-20T01:40:45.460Z,74657.47
2022-08-20T01:43:15.317Z,74659.53
2022-08-20T01:45:45.646Z,74667.69
2022-08-20T01:48:16.900Z,74663.59
2022-08-20T01:50:54.773Z,74661.56
2022-08-20T01:53:29.656Z,74663.59
2022-08-20T01:55:57.623Z,74669.72
2022-08-20T01:58:29.617Z,74671.75
2022-08-20T02:00:57.792Z,74667.69
2022-08-20T02:03:26.359Z,74667.69
2022-08-20T02:05:54.558Z,74671.75
2022-08-20T02:08:22.797Z,74673.78
2022-08-20T02:10:50.815Z,74675.81
2022-08-20T02:13:19.026Z,74671.75
2022-08-20T02:15:48.266Z,74671.75
2022-08-20T02:18:17.276Z,74679.91
2022-08-20T02:20:46.681Z,74675.81
2022-08-20T02:23:15.629Z,74677.88
2022-08-20T02:25:47.326Z,74679.91
2022-08-20T02:28:19.751Z,74683.97
2022-08-20T02:30:52.789Z,74688.06
2022-08-20T02:33:24.097Z,74686.00
2022-08-20T02:35:55.448Z,74694.16
2022-08-20T02:38:23.832Z,74692.13
2022-08-20T02:40:51.968Z,74692.13
2022-08-20T02:43:20.225Z,74698.25
2022-08-20T02:45:50.119Z,74702.31
2022-08-20T02:48:20.887Z,74702.31
2022-08-20T02:50:52.305Z,74704.34
2022-08-20T02:53:20.453Z,74708.44
2022-08-20T02:55:48.411Z,74712.50
2022-08-20T02:58:17.343Z,74712.50
2022-08-20T03:00:45.679Z,74710.47
2022-08-20T03:03:20.301Z,74724.75
2022-08-20T03:05:48.462Z,74720.66
2022-08-20T03:08:17.819Z,74724.75
2022-08-20T03:10:47.909Z,74728.81
2022-08-20T03:13:16.752Z,74730.84
2022-08-20T03:15:47.023Z,74728.81
2022-08-20T03:18:17.147Z,74728.81
2022-08-20T03:20:46.212Z,74728.81
2022-08-20T03:23:21.389Z,74732.88
2022-08-20T03:25:50.526Z,74724.75
2022-08-20T03:28:18.876Z,74724.75
2022-08-20T03:30:46.908Z,74716.59
2022-08-20T03:33:17.208Z,74722.69
2022-08-20T03:35:45.239Z,74728.81
2022-08-20T03:38:16.352Z,74736.97
2022-08-20T03:40:45.496Z,74732.88
2022-08-20T03:43:13.813Z,74749.19
2022-08-20T03:45:44.456Z,74749.19
2022-08-20T03:48:14.537Z,74755.31
2022-08-20T03:50:45.847Z,74761.41
2022-08-20T03:53:15.503Z,74761.41
2022-08-20T03:55:54.036Z,74761.41
2022-08-20T03:58:33.305Z,74771.59
2022-08-20T04:01:03.654Z,74771.59
2022-08-20T04:03:31.549Z,74773.66
2022-08-20T04:06:01.000Z,74777.72
2022-08-20T04:08:30.727Z,74781.81
2022-08-20T04:10:59.782Z,74787.91
2022-08-20T04:13:29.751Z,74785.88
2022-08-20T04:15:58.650Z,74792.00
2022-08-20T04:18:27.440Z,74794.03
2022-08-20T04:20:55.557Z,74781.81
2022-08-20T04:23:25.184Z,74792.00
2022-08-20T04:25:53.059Z,74794.03
2022-08-20T04:28:27.358Z,74794.03
2022-08-20T04:30:56.221Z,74798.09
2022-08-20T04:33:35.526Z,74794.03
2022-08-20T04:36:06.305Z,74796.06
2022-08-20T04:38:47.807Z,74798.09
2022-08-20T04:41:22.764Z,74794.03
2022-08-20T04:43:53.117Z,74798.09
2022-08-20T04:46:22.472Z,74798.09
2022-08-20T04:48:50.721Z,74802.19
2022-08-20T04:51:19.316Z,74798.09
2022-08-20T04:53:54.296Z,74798.09
2022-08-20T04:56:24.593Z,74798.09
2022-08-20T04:58:54.548Z,74796.06
2022-08-20T05:01:24.158Z,74804.22
2022-08-20T05:03:54.835Z,74802.19
2022-08-20T05:06:25.842Z,74796.06
2022-08-20T05:08:55.872Z,74794.03
2022-08-20T05:11:33.773Z,74794.03
2022-08-20T05:14:06.180Z,74779.75
2022-08-20T05:16:38.814Z,74771.59
2022-08-20T05:19:08.673Z,74769.56
2022-08-20T05:21:37.796Z,74765.50
2022-08-20T05:24:07.986Z,74767.53
2022-08-20T05:26:36.711Z,74763.47
2022-08-20T05:29:06.410Z,74761.41
2022-08-20T05:31:35.203Z,74757.34
2022-08-20T05:34:03.656Z,74757.34
2022-08-20T05:36:31.867Z,74745.13
2022-08-20T05:38:59.759Z,74736.97
2022-08-20T05:41:30.460Z,74736.97
2022-08-20T05:44:01.744Z,74716.59
2022-08-20T05:46:31.249Z,74712.50
2022-08-20T05:49:01.388Z,74712.50
2022-08-20T05:51:29.653Z,74704.34
2022-08-20T05:53:59.461Z,74675.81
2022-08-20T05:56:31.203Z,74667.69
2022-08-20T05:59:02.738Z,74671.75
2022-08-20T06:01:31.461Z,74659.53
2022-08-20T06:04:17.143Z,74669.72
2022-08-20T06:06:47.120Z,74663.59
2022-08-20T06:09:16.790Z,74651.38
2022-08-20T06:12:01.024Z,74643.22
2022-08-20T06:14:29.107Z,74635.06
2022-08-20T06:17:02.750Z,74643.22
2022-08-20T06:19:32.439Z,74651.38
2022-08-20T06:22:01.219Z,74647.28
2022-08-20T06:24:29.374Z,74659.53
2022-08-20T06:26:57.873Z,74665.63
2022-08-20T06:29:28.542Z,74675.81
2022-08-20T06:31:57.224Z,74675.81
2022-08-20T06:34:28.433Z,74692.13
2022-08-20T06:36:59.465Z,74696.19
2022-08-20T06:39:30.020Z,74700.28
2022-08-20T06:41:59.486Z,74704.34
2022-08-20T06:44:29.009Z,74708.44
2022-08-20T06:47:04.393Z,74710.47
2022-08-20T06:49:35.434Z,74712.50
2022-08-20T06:52:04.778Z,74720.66
2022-08-20T06:54:34.321Z,74724.75
2022-08-20T06:57:02.918Z,74732.88
2022-08-20T06:59:32.777Z,74732.88
2022-08-20T07:02:00.634Z,74728.81
2022-08-20T07:04:28.959Z,74720.66
2022-08-20T07:06:57.675Z,74714.53
2022-08-20T07:09:27.126Z,74704.34
2022-08-20T07:11:55.064Z,74702.31
2022-08-20T07:14:23.339Z,74698.25
2022-08-20T07:16:52.583Z,74700.28
2022-08-20T07:19:20.490Z,74696.19
2022-08-20T07:21:50.768Z,74708.44
2022-08-20T07:24:18.639Z,74712.50
2022-08-20T07:26:46.605Z,74708.44
2022-08-20T07:29:14.777Z,74708.44
2022-08-20T07:32:00.029Z,74704.34
2022-08-20T07:34:31.372Z,74720.66
2022-08-20T07:37:00.773Z,74734.94
2022-08-20T07:39:30.013Z,74730.84
2022-08-20T07:42:04.094Z,74743.06
2022-08-20T07:44:32.231Z,74765.50
2022-08-20T07:47:00.570Z,74773.66
2022-08-20T07:49:29.997Z,74773.66
2022-08-20T07:51:58.151Z,74775.69
2022-08-20T07:54:28.056Z,74765.50
2022-08-20T07:57:02.556Z,74773.66
2022-08-20T07:59:31.272Z,74789.94
2022-08-20T08:01:59.547Z,74798.09
2022-08-20T08:04:28.826Z,74798.09
2022-08-20T08:07:00.090Z,74800.16
2022-08-20T08:09:29.413Z,74802.19
2022-08-20T08:12:00.695Z,74806.25
2022-08-20T08:14:32.481Z,74802.19
2022-08-20T08:17:04.469Z,74824.59
2022-08-20T08:19:38.927Z,74834.78
2022-08-20T08:22:09.137Z,74836.81
2022-08-20T08:24:37.315Z,74826.63
2022-08-20T08:27:05.562Z,74814.41
2022-08-20T08:29:33.970Z,74808.28
2022-08-20T08:32:02.888Z,74802.19
2022-08-20T08:34:33.020Z,74820.53
2022-08-20T08:37:05.491Z,74826.63
2022-08-20T08:39:36.224Z,74812.38
2022-08-20T08:42:21.970Z,74818.47
2022-08-20T08:44:50.821Z,74830.72
2022-08-20T08:47:26.373Z,74822.56
2022-08-20T08:49:54.391Z,74830.72
2022-08-20T08:52:27.428Z,74830.72
2022-08-20T08:54:58.461Z,74838.88
2022-08-20T08:57:27.504Z,74828.69
2022-08-20T09:00:04.702Z,74824.59
2022-08-20T09:02:35.340Z,74822.56
2022-08-20T09:05:05.530Z,74830.72
2022-08-20T09:07:36.345Z,74834.78
2022-08-20T09:10:06.054Z,74840.91
2022-08-20T09:12:34.189Z,74842.94
2022-08-20T09:15:02.081Z,74844.97
2022-08-20T09:17:30.007Z,74853.13
2022-08-20T09:19:58.205Z,74847.00
2022-08-20T09:22:26.602Z,74847.00
2022-08-20T09:24:56.275Z,74849.06
2022-08-20T09:27:24.390Z,74855.16
2022-08-20T09:29:53.505Z,74853.13
2022-08-20T09:32:24.829Z,74849.06
2022-08-20T09:34:56.842Z,74838.88
2022-08-20T09:37:26.186Z,74834.78
2022-08-20T09:39:56.880Z,74834.78
2022-08-20T09:42:31.483Z,74820.53
2022-08-20T09:45:00.316Z,74828.69
2022-08-20T09:47:28.790Z,74818.47
2022-08-20T09:49:56.773Z,74822.56
2022-08-20T09:52:28.059Z,74822.56
2022-08-20T09:55:00.608Z,74818.47
2022-08-20T09:57:30.785Z,74818.47
2022-08-20T10:00:02.001Z,74822.56
2022-08-20T10:02:30.228Z,74818.47
2022-08-20T10:04:58.116Z,74810.34
2022-08-20T10:07:26.445Z,74812.38
2022-08-20T10:09:54.565Z,74818.47
2022-08-20T10:12:23.815Z,74818.47
2022-08-20T10:14:51.675Z,74806.25
2022-08-20T10:17:19.845Z,74812.38
2022-08-20T10:19:47.759Z,74820.53
2022-08-20T10:22:15.653Z,74826.63
2022-08-20T10:24:43.878Z,74820.53
2022-08-20T10:27:11.759Z,74818.47
2022-08-20T10:29:46.263Z,74818.47
2022-08-20T10:32:17.199Z,74816.44
2022-08-20T10:34:46.465Z,74818.47
2022-08-20T10:37:16.504Z,74816.44
2022-08-20T10:39:45.321Z,74798.09
2022-08-20T10:42:13.559Z,74802.19
2022-08-20T10:44:43.595Z,74794.03
2022-08-20T10:47:21.774Z,74802.19
2022-08-20T10:49:51.087Z,74814.41
2022-08-20T10:52:19.501Z,74806.25
2022-08-20T10:54:47.702Z,74808.28
2022-08-20T10:57:17.593Z,74798.09
2022-08-20T10:59:49.205Z,74785.88
2022-08-20T11:02:18.258Z,74794.03
2022-08-20T11:04:46.776Z,74794.03
2022-08-20T11:07:16.950Z,74796.06
2022-08-20T11:09:48.457Z,74785.88
2022-08-20T11:12:17.537Z,74777.72
2022-08-20T11:14:47.351Z,74777.72
2022-08-20T11:17:21.072Z,74775.69
2022-08-20T11:19:49.248Z,74773.66
2022-08-20T11:22:17.332Z,74765.50
2022-08-20T11:24:46.059Z,74757.34
2022-08-20T11:27:24.060Z,74751.22
2022-08-20T11:29:53.835Z,74741.03
2022-08-20T11:32:22.474Z,74736.97
2022-08-20T11:34:50.687Z,74720.66
2022-08-20T11:37:21.856Z,74726.78
2022-08-20T11:39:50.255Z,74720.66
2022-08-20T11:42:18.397Z,74720.66
2022-08-20T11:44:46.601Z,74712.50
2022-08-20T11:47:23.704Z,74716.59
2022-08-20T11:49:59.512Z,74712.50
2022-08-20T11:52:28.539Z,74722.69
2022-08-20T11:54:57.218Z,74726.78
2022-08-20T11:57:27.842Z,74728.81
2022-08-20T11:59:58.071Z,74724.75
2022-08-20T12:02:27.687Z,74736.97
2022-08-20T12:04:57.985Z,74747.16
2022-08-20T12:07:26.697Z,74749.19
2022-08-20T12:09:54.992Z,74736.97
2022-08-20T12:12:24.640Z,74736.97
2022-08-20T12:14:52.815Z,74743.06
2022-08-20T12:17:24.016Z,74741.03
2022-08-20T12:19:56.642Z,74736.97
2022-08-20T12:22:25.586Z,74728.81
2022-08-20T12:24:54.508Z,74724.75
2022-08-20T12:27:25.010Z,74718.63
2022-08-20T12:29:54.985Z,74708.44
2022-08-20T12:32:24.801Z,74696.19
2022-08-20T12:34:54.892Z,74692.13
2022-08-20T12:37:25.904Z,74694.16
2022-08-20T12:39:56.911Z,74690.09
2022-08-20T12:42:26.364Z,74686.00
2022-08-20T12:44:54.507Z,74683.97
2022-08-20T12:47:25.389Z,74683.97
2022-08-20T12:49:57.376Z,74679.91
2022-08-20T12:52:27.158Z,74661.56
2022-08-20T12:54:56.361Z,74655.44
2022-08-20T12:57:28.677Z,74647.28
2022-08-20T12:59:57.202Z,74641.19
2022-08-20T13:02:27.169Z,74647.28
2022-08-20T13:04:57.630Z,74651.38
2022-08-20T13:07:28.348Z,74651.38
2022-08-20T13:09:56.240Z,74661.56
2022-08-20T13:12:24.096Z,74661.56
2022-08-20T13:14:52.274Z,74667.69
2022-08-20T13:17:22.723Z,74673.78
2022-08-20T13:20:15.332Z,74665.63
2022-08-20T13:22:43.619Z,74671.75
2022-08-20T13:25:13.766Z,74651.38
2022-08-20T13:27:42.568Z,74651.38
2022-08-20T13:30:13.676Z,74641.19
2022-08-20T13:32:42.095Z,74645.25
2022-08-20T13:35:12.864Z,74645.25
2022-08-20T13:37:41.397Z,74643.22
2022-08-20T13:40:11.099Z,74643.22
2022-08-20T13:42:39.757Z,74641.19
2022-08-20T13:45:09.556Z,74651.38
2022-08-20T13:47:40.505Z,74665.63
2022-08-20T13:50:12.868Z,74651.38
2022-08-20T13:52:42.740Z,74643.22
2022-08-20T13:55:13.954Z,74635.06
2022-08-20T13:57:44.265Z,74618.75
2022-08-20T14:00:15.859Z,74610.63
2022-08-20T14:02:44.420Z,74622.84
2022-08-20T14:05:18.627Z,74616.72
2022-08-20T14:07:48.364Z,74622.84
2022-08-20T14:10:19.485Z,74614.69
2022-08-20T14:12:48.352Z,74610.63
2022-08-20T14:15:16.790Z,74622.84
2022-08-20T14:17:51.570Z,74622.84
2022-08-20T14:20:32.111Z,74624.88
2022-08-20T14:23:01.356Z,74626.91
2022-08-20T14:25:30.499Z,74614.69
2022-08-20T14:27:58.948Z,74600.41
2022-08-20T14:30:29.637Z,74608.56
2022-08-20T14:32:58.023Z,74618.75
2022-08-20T14:35:27.510Z,74608.56
2022-08-20T14:37:56.595Z,74620.81
2022-08-20T14:40:27.389Z,74606.53
2022-08-20T14:42:56.225Z,74590.22
2022-08-20T14:45:24.797Z,74582.09
2022-08-20T14:47:55.564Z,74569.84
2022-08-20T14:50:28.031Z,74573.94
2022-08-20T14:52:56.880Z,74573.94
2022-08-20T14:55:28.868Z,74584.13
2022-08-20T14:57:57.258Z,74580.03
2022-08-20T15:00:27.309Z,74598.38
2022-08-20T15:02:56.008Z,74608.56
2022-08-20T15:05:24.368Z,74622.84
2022-08-20T15:07:54.088Z,74618.75
2022-08-20T15:10:24.673Z,74626.91
2022-08-20T15:12:53.003Z,74620.81
2022-08-20T15:15:21.827Z,74618.75
2022-08-20T15:17:52.530Z,74626.91
2022-08-20T15:20:24.130Z,74633.03
2022-08-20T15:22:54.235Z,74639.13
2022-08-20T15:25:25.261Z,74628.94
2022-08-20T15:28:00.813Z,74639.13
2022-08-20T15:30:31.327Z,74651.38
2022-08-20T15:32:59.795Z,74647.28
2022-08-20T15:35:29.596Z,74635.06
2022-08-20T15:38:00.132Z,74643.22
2022-08-20T15:40:30.214Z,74651.38
2022-08-20T15:42:59.720Z,74659.53
2022-08-20T15:45:28.422Z,74663.59
2022-08-20T15:48:03.322Z,74667.69
2022-08-20T15:50:50.898Z,74673.78
2022-08-20T15:53:28.068Z,74679.91
2022-08-20T15:56:04.236Z,74675.81
2022-08-20T15:58:38.482Z,74679.91
2022-08-20T16:01:24.592Z,74690.09
2022-08-20T16:04:15.695Z,74694.16
2022-08-20T16:06:48.038Z,74688.06
2022-08-20T16:09:35.305Z,74698.25
2022-08-20T16:12:11.174Z,74700.28
2022-08-20T16:14:41.504Z,74704.34
2022-08-20T16:17:14.536Z,74702.31
2022-08-20T16:19:52.062Z,74712.50
2022-08-20T16:22:20.897Z,74722.69
2022-08-20T16:24:50.810Z,74708.44
2022-08-20T16:27:28.367Z,74718.63
2022-08-20T16:30:04.105Z,74720.66
2022-08-20T16:32:42.055Z,74732.88
2022-08-20T16:35:32.346Z,74741.03
2022-08-20T16:38:07.928Z,74753.28
2022-08-20T16:40:47.165Z,74753.28
2022-08-20T16:43:22.563Z,74761.41
2022-08-20T16:45:55.126Z,74769.56
2022-08-20T16:48:23.138Z,74779.75
2022-08-20T16:50:59.202Z,74789.94
2022-08-20T16:53:28.109Z,74796.06
2022-08-20T16:55:57.712Z,74798.09
2022-08-20T16:58:25.965Z,74806.25
2022-08-20T17:01:10.631Z,74818.47
2022-08-20T17:03:40.925Z,74822.56
2022-08-20T17:06:19.391Z,74818.47
2022-08-20T17:08:50.408Z,74822.56
2022-08-20T17:11:29.037Z,74822.56
2022-08-20T17:14:07.885Z,74830.72
2022-08-20T17:16:39.764Z,74826.63
2022-08-20T17:19:11.513Z,74830.72
2022-08-20T17:21:40.799Z,74838.88
2022-08-20T17:24:16.865Z,74832.75
2022-08-20T17:26:50.424Z,74834.78
2022-08-20T17:29:24.214Z,74847.00
2022-08-20T17:31:55.736Z,74847.00
2022-08-20T17:34:26.069Z,74847.00
2022-08-20T17:36:57.138Z,74847.00
2022-08-20T17:39:27.550Z,74851.09
2022-08-20T17:42:08.144Z,74857.22
2022-08-20T17:44:42.261Z,74867.41
2022-08-20T17:47:16.716Z,74871.47
2022-08-20T17:50:01.236Z,74889.81
2022-08-20T17:52:35.396Z,74891.84
2022-08-20T17:55:04.323Z,74893.91
2022-08-20T17:57:38.811Z,74895.94
2022-08-20T18:00:10.326Z,74902.03
2022-08-20T18:02:38.205Z,74904.09
2022-08-20T18:05:10.611Z,74912.22
2022-08-20T18:07:43.885Z,74914.28
2022-08-20T18:10:16.427Z,74924.47
2022-08-20T18:12:53.838Z,74934.66
2022-08-20T18:15:25.686Z,74942.81
2022-08-20T18:18:17.885Z,74936.69
2022-08-20T18:21:16.355Z,74950.97
2022-08-20T18:23:48.552Z,74965.22
2022-08-20T18:26:23.539Z,74965.22
2022-08-20T18:28:58.025Z,74967.25
2022-08-20T18:31:29.435Z,74975.41
2022-08-20T18:33:58.111Z,74977.47
2022-08-20T18:36:28.873Z,74973.38
2022-08-20T18:39:01.613Z,74973.38
2022-08-20T18:41:32.814Z,74975.41
2022-08-20T18:44:09.427Z,74989.69
2022-08-20T18:46:37.849Z,74985.59
2022-08-20T18:49:08.261Z,74985.59
2022-08-20T18:51:42.086Z,74979.50
2022-08-20T18:54:22.055Z,74979.50
2022-08-20T18:56:49.942Z,74981.53
2022-08-20T18:59:20.171Z,74981.53
2022-08-20T19:01:49.949Z,74985.59
2022-08-20T19:04:24.435Z,74981.53
2022-08-20T19:06:58.814Z,74979.50
2022-08-20T19:09:51.421Z,74981.53
2022-08-20T19:12:42.385Z,74983.56
2022-08-20T19:15:17.374Z,74981.53
2022-08-20T19:17:56.523Z,74977.47
2022-08-20T19:20:27.421Z,74981.53
2022-08-20T19:23:00.124Z,74985.59
2022-08-20T19:25:30.946Z,74985.59
2022-08-20T19:28:01.075Z,74981.53
2022-08-20T19:30:34.442Z,74977.47
2022-08-20T19:33:06.045Z,74973.38
2022-08-20T19:35:34.791Z,74969.31
2022-08-20T19:38:03.273Z,74965.22
2022-08-20T19:40:35.133Z,74963.19
2022-08-20T19:43:46.019Z,74971.34
2022-08-20T19:46:53.370Z,74975.41
2022-08-20T19:50:11.404Z,74969.31
2022-08-20T19:53:29.978Z,74965.22
2022-08-20T19:56:42.020Z,74969.31
2022-08-20T19:59:28.130Z,74971.34
2022-08-20T20:02:36.113Z,74961.16
2022-08-20T20:05:50.225Z,74944.84
2022-08-20T20:08:59.143Z,74953.00
2022-08-20T20:12:10.411Z,74963.19
2022-08-20T20:15:28.345Z,74967.25
2022-08-20T20:18:38.705Z,74961.16
2022-08-20T20:21:18.687Z,74965.22
2022-08-20T20:23:55.628Z,74965.22
2022-08-20T20:26:24.098Z,74965.22
2022-08-20T20:28:55.190Z,74965.22
2022-08-20T20:31:28.839Z,74969.31
2022-08-20T20:34:03.283Z,74969.31
2022-08-20T20:36:34.967Z,74965.22
2022-08-20T20:39:11.227Z,74961.16
2022-08-20T20:41:51.933Z,74961.16
2022-08-20T20:44:22.128Z,74959.13
2022-08-20T20:46:58.408Z,74965.22
2022-08-20T20:49:30.696Z,74961.16
2022-08-20T20:52:03.490Z,74967.25
2022-08-20T20:54:41.375Z,74985.59
2022-08-20T20:57:32.696Z,74985.59
2022-08-20T21:00:11.878Z,74989.69
2022-08-20T21:02:39.793Z,74989.69
2022-08-20T21:05:10.522Z,74985.59
2022-08-20T21:07:50.437Z,74987.66
2022-08-20T21:10:20.368Z,74987.66
2022-08-20T21:12:52.682Z,74993.75
2022-08-20T21:15:22.928Z,74973.38
2022-08-20T21:17:51.184Z,74985.59
2022-08-20T21:20:21.438Z,74989.69
2022-08-20T21:22:49.411Z,74985.59
2022-08-20T21:25:18.735Z,74977.47
2022-08-20T21:27:51.590Z,74985.59
2022-08-20T21:30:21.228Z,74989.69
2022-08-20T21:32:49.378Z,74985.59
2022-08-20T21:35:18.018Z,74993.75
2022-08-20T21:37:47.862Z,74997.84
2022-08-20T21:40:17.400Z,74999.88
2022-08-20T21:42:50.050Z,75001.91
2022-08-20T21:45:19.835Z,75006.00
2022-08-20T21:47:49.322Z,75014.13
2022-08-20T21:50:20.109Z,75014.13
2022-08-20T21:52:55.231Z,74999.88
2022-08-20T21:55:28.751Z,75003.94
2022-08-20T21:57:57.098Z,75010.06
2022-08-20T22:00:51.531Z,75020.25
2022-08-20T22:03:20.648Z,75020.25
2022-08-20T22:05:49.904Z,75016.19
2022-08-20T22:08:19.733Z,75010.06
2022-08-20T22:10:47.674Z,75014.13
2022-08-20T22:13:16.314Z,75006.00
2022-08-20T22:15:46.137Z,75010.06
2022-08-20T22:18:14.189Z,75014.13
2022-08-20T22:20:43.681Z,75012.09
2022-08-20T22:23:12.007Z,75012.09
2022-08-20T22:25:41.368Z,75010.06
2022-08-20T22:28:09.570Z,75010.06
2022-08-20T22:30:41.777Z,74999.88
2022-08-20T22:33:14.559Z,75006.00
2022-08-20T22:35:48.543Z,75003.94
2022-08-20T22:38:17.085Z,74995.81
2022-08-20T22:40:47.314Z,74999.88
2022-08-20T22:43:16.284Z,75008.03
2022-08-20T22:45:46.532Z,74999.88
2022-08-20T22:48:17.693Z,75010.06
2022-08-20T22:50:46.080Z,75014.13
2022-08-20T22:53:15.677Z,75010.06
2022-08-20T22:55:43.859Z,75010.06
2022-08-20T22:58:14.549Z,75003.94
2022-08-20T23:00:45.357Z,75008.03
2022-08-20T23:03:13.893Z,75010.06
2022-08-20T23:05:42.593Z,75014.13
2022-08-20T23:08:15.570Z,75010.06
2022-08-20T23:10:43.564Z,75010.06
2022-08-20T23:13:11.691Z,75012.09
2022-08-20T23:15:45.251Z,75001.91
2022-08-20T23:18:16.860Z,75006.00
2022-08-20T23:20:49.824Z,74997.84
2022-08-20T23:23:18.240Z,74991.72
2022-08-20T23:25:46.696Z,74997.84
2022-08-20T23:28:14.590Z,74997.84
2022-08-20T23:30:44.121Z,74993.75
2022-08-20T23:33:12.233Z,74991.72
2022-08-20T23:35:41.248Z,74995.81
2022-08-20T23:38:09.925Z,74995.81
2022-08-20T23:40:38.179Z,75001.91
2022-08-20T23:43:07.589Z,74993.75
2022-08-20T23:45:39.696Z,74997.84
2022-08-20T23:48:09.816Z,74991.72
2022-08-20T23:50:38.823Z,74989.69
2022-08-20T23:53:07.618Z,74985.59
2022-08-20T23:55:35.696Z,74989.69
2022-08-20T23:58:03.983Z,74981.53
